createdAt,value
2019-06-07T00:01:20.733Z,9.75
2019-06-07T00:03:48.891Z,9.23
2019-06-07T00:06:24.354Z,7.70
2019-06-07T00:08:49.594Z,11.68
2019-06-07T00:11:20.696Z,9.15
2019-06-07T00:13:50.166Z,8.65
2019-06-07T00:16:23.185Z,11.10
2019-06-07T00:18:51.752Z,10.70
2019-06-07T00:22:12.165Z,10.23
2019-06-07T00:23:52.380Z,11.88
2019-06-07T00:26:21.815Z,8.88
2019-06-07T00:28:51.256Z,9.93
2019-06-07T00:31:24.406Z,11.05
2019-06-07T00:33:51.767Z,10.95
2019-06-07T00:36:23.231Z,9.85
2019-06-07T00:38:52.561Z,11.80
2019-06-07T00:41:22.524Z,11.10
2019-06-07T00:43:52.044Z,12.53
2019-06-07T00:46:25.076Z,14.10
2019-06-07T00:48:52.935Z,11.78
2019-06-07T00:51:24.087Z,11.33
2019-06-07T00:53:53.618Z,10.70
2019-06-07T00:56:23.623Z,12.75
2019-06-07T00:59:10.289Z,13.13
2019-06-07T01:01:25.538Z,13.03
2019-06-07T01:03:55.258Z,10.45
2019-06-07T01:06:25.184Z,12.75
2019-06-07T01:08:55.529Z,10.75
2019-06-07T01:11:26.087Z,11.08
2019-06-07T01:13:56.288Z,12.50
2019-06-07T01:16:26.536Z,10.78
2019-06-07T01:18:57.003Z,9.90
2019-06-07T01:21:29.697Z,9.20
2019-06-07T01:24:11.630Z,12.18
2019-06-07T01:26:30.375Z,9.38
2019-06-07T01:29:00.540Z,10.43
2019-06-07T01:31:31.989Z,14.30
2019-06-07T01:34:02.105Z,9.30
2019-06-07T01:36:31.538Z,9.18
2019-06-07T01:39:01.439Z,10.80
2019-06-07T01:41:31.576Z,11.93
2019-06-07T01:44:02.433Z,10.18
2019-06-07T01:46:32.188Z,9.08
2019-06-07T01:49:01.935Z,9.75
2019-06-07T01:51:31.686Z,10.10
2019-06-07T01:54:48.564Z,10.08
2019-06-07T01:56:32.208Z,11.12
2019-06-07T01:59:01.699Z,10.53
2019-06-07T02:01:35.381Z,10.20
2019-06-07T02:04:02.872Z,11.03
2019-06-07T02:06:32.787Z,13.43
2019-06-07T02:09:02.754Z,14.28
2019-06-07T02:11:33.697Z,16.20
2019-06-07T02:14:04.858Z,11.97
2019-06-07T02:16:34.392Z,12.55
2019-06-07T02:19:04.113Z,13.22
2019-06-07T02:21:34.782Z,10.65
2019-06-07T02:24:04.574Z,13.83
2019-06-07T02:26:34.329Z,13.65
2019-06-07T02:29:04.307Z,13.70
2019-06-07T02:31:39.091Z,11.73
2019-06-07T02:34:05.039Z,11.50
2019-06-07T02:36:40.867Z,15.75
2019-06-07T02:39:07.676Z,16.02
2019-06-07T02:41:39.862Z,15.75
2019-06-07T02:44:08.303Z,13.65
2019-06-07T02:46:46.738Z,12.78
2019-06-07T02:49:09.672Z,13.50
2019-06-07T02:51:41.709Z,15.50
2019-06-07T02:54:10.390Z,14.25
2019-06-07T02:56:56.260Z,13.75
2019-06-07T02:59:11.099Z,12.98
2019-06-07T03:01:42.578Z,13.83
2019-06-07T03:04:12.498Z,12.65
2019-06-07T03:06:43.814Z,13.65
2019-06-07T03:09:13.907Z,13.95
2019-06-07T03:11:45.510Z,13.18
2019-06-07T03:14:17.951Z,11.70
2019-06-07T03:16:50.565Z,12.80
2019-06-07T03:19:24.705Z,13.10
2019-06-07T03:21:54.079Z,11.80
2019-06-07T03:24:25.076Z,12.53
2019-06-07T03:27:32.693Z,13.00
2019-06-07T03:29:28.878Z,12.47
2019-06-07T03:31:58.318Z,14.18
2019-06-07T03:34:29.714Z,14.83
2019-06-07T03:36:59.313Z,12.13
2019-06-07T03:39:29.569Z,13.93
2019-06-07T03:42:06.454Z,12.10
2019-06-07T03:44:33.979Z,12.13
2019-06-07T03:47:03.208Z,13.10
2019-06-07T03:49:37.523Z,13.35
2019-06-07T03:52:04.366Z,12.93
2019-06-07T03:54:36.913Z,12.82
2019-06-07T03:57:05.564Z,13.18
2019-06-07T03:59:38.585Z,14.55
2019-06-07T04:02:06.694Z,12.33
2019-06-07T04:04:38.473Z,16.25
2019-06-07T04:07:07.688Z,13.10
2019-06-07T04:09:40.141Z,13.62
2019-06-07T04:12:08.708Z,13.40
2019-06-07T04:14:40.876Z,15.70
2019-06-07T04:17:09.402Z,12.33
2019-06-07T04:19:43.071Z,11.60
2019-06-07T04:22:10.407Z,12.53
2019-06-07T04:24:41.914Z,15.30
2019-06-07T04:27:11.020Z,14.78
2019-06-07T04:30:03.455Z,16.85
2019-06-07T04:32:11.919Z,11.75
2019-06-07T04:34:43.078Z,12.63
2019-06-07T04:37:13.910Z,13.20
2019-06-07T04:39:45.432Z,11.30
2019-06-07T04:42:18.268Z,12.33
2019-06-07T04:44:50.265Z,13.10
2019-06-07T04:47:20.003Z,12.58
2019-06-07T04:49:51.245Z,12.70
2019-06-07T04:52:20.724Z,12.85
2019-06-07T04:54:50.223Z,12.07
2019-06-07T04:57:19.863Z,12.23
2019-06-07T05:00:33.083Z,11.83
2019-06-07T05:02:21.528Z,10.98
2019-06-07T05:04:50.967Z,13.32
2019-06-07T05:07:20.345Z,13.20
2019-06-07T05:09:51.061Z,11.15
2019-06-07T05:12:20.479Z,10.98
2019-06-07T05:14:49.925Z,19.02
2019-06-07T05:17:19.579Z,11.97
2019-06-07T05:19:49.016Z,12.68
2019-06-07T05:22:18.467Z,12.10
2019-06-07T05:24:47.914Z,10.48
2019-06-07T05:27:17.565Z,10.48
2019-06-07T05:30:09.044Z,12.20
2019-06-07T05:32:19.368Z,9.98
2019-06-07T05:34:48.797Z,10.10
2019-06-07T05:37:18.264Z,11.68
2019-06-07T05:39:47.955Z,9.65
2019-06-07T05:42:17.503Z,17.57
2019-06-07T05:44:47.152Z,9.98
2019-06-07T05:47:16.760Z,9.93
2019-06-07T05:49:47.285Z,11.33
2019-06-07T05:52:17.092Z,11.50
2019-06-07T05:54:47.199Z,12.35
2019-06-07T05:57:16.966Z,14.05
2019-06-07T05:59:47.759Z,8.53
2019-06-07T06:02:22.546Z,9.80
2019-06-07T06:04:49.483Z,9.58
2019-06-07T06:07:19.268Z,8.80
2019-06-07T06:09:48.700Z,11.20
2019-06-07T06:12:34.265Z,8.35
2019-06-07T06:14:49.374Z,11.55
2019-06-07T06:17:19.130Z,9.10
2019-06-07T06:19:52.437Z,10.65
2019-06-07T06:22:20.053Z,9.33
2019-06-07T06:25:29.748Z,7.33
2019-06-07T06:28:02.637Z,10.72
2019-06-07T06:29:52.564Z,10.45
2019-06-07T06:34:55.738Z,8.28
2019-06-07T06:37:25.001Z,8.13
2019-06-07T06:39:54.664Z,10.70
2019-06-07T06:42:24.034Z,7.85
2019-06-07T06:44:54.143Z,10.78
2019-06-07T06:47:23.996Z,7.72
2019-06-07T06:49:54.343Z,8.00
2019-06-07T06:52:24.328Z,10.15
2019-06-07T06:55:00.524Z,9.68
2019-06-07T06:57:25.028Z,9.63
2019-06-07T06:59:54.422Z,8.30
2019-06-07T07:02:24.030Z,7.50
2019-06-07T07:04:54.027Z,8.90
2019-06-07T07:07:25.884Z,9.98
2019-06-07T07:09:59.451Z,8.90
2019-06-07T07:12:27.582Z,9.30
2019-06-07T07:14:56.966Z,14.73
2019-06-07T07:17:46.954Z,9.25
2019-06-07T07:19:57.799Z,13.62
2019-06-07T07:22:27.656Z,13.35
2019-06-07T07:24:57.162Z,9.90
2019-06-07T07:27:27.149Z,8.73
2019-06-07T07:30:34.761Z,8.53
2019-06-07T07:32:28.377Z,9.78
2019-06-07T07:35:00.521Z,11.00
2019-06-07T07:37:28.977Z,10.55
2019-06-07T07:40:21.372Z,13.85
2019-06-07T07:42:29.935Z,11.43
2019-06-07T07:44:59.583Z,14.25
2019-06-07T07:47:29.217Z,7.83
2019-06-07T07:49:59.272Z,10.78
2019-06-07T07:52:28.960Z,14.43
2019-06-07T07:54:58.737Z,8.30
2019-06-07T07:57:28.970Z,7.75
2019-06-07T08:00:25.711Z,9.78
2019-06-07T08:02:29.999Z,14.40
2019-06-07T08:05:20.995Z,8.53
2019-06-07T08:07:30.744Z,8.43
2019-06-07T08:10:03.886Z,7.10
2019-06-07T08:12:54.677Z,12.93
2019-06-07T08:15:03.754Z,7.85
2019-06-07T08:17:34.016Z,10.03
2019-06-07T08:20:08.589Z,14.10
2019-06-07T08:22:38.369Z,8.38
2019-06-07T08:25:09.141Z,9.58
2019-06-07T08:27:38.595Z,13.32
2019-06-07T08:30:46.594Z,7.90
2019-06-07T08:32:41.663Z,16.77
2019-06-07T08:35:11.438Z,8.15
2019-06-07T08:38:14.941Z,9.90
2019-06-07T08:40:15.219Z,5.75
2019-06-07T08:43:02.904Z,6.97
2019-06-07T08:45:16.849Z,7.25
2019-06-07T08:47:46.267Z,14.28
2019-06-07T08:50:16.524Z,8.53
2019-06-07T08:52:46.300Z,8.98
2019-06-07T08:55:17.339Z,8.35
2019-06-07T08:57:47.334Z,11.12
2019-06-07T09:00:43.314Z,6.92
2019-06-07T09:02:51.134Z,8.08
2019-06-07T09:05:21.111Z,10.82
2019-06-07T09:08:13.358Z,7.50
2019-06-07T09:10:22.265Z,10.45
2019-06-07T09:12:54.408Z,11.90
2019-06-07T09:15:24.467Z,9.00
2019-06-07T09:18:34.995Z,5.78
2019-06-07T09:20:36.778Z,9.45
2019-06-07T09:23:07.205Z,6.65
2019-06-07T09:25:30.879Z,9.60
2019-06-07T09:28:10.246Z,7.65
2019-06-07T09:30:37.829Z,5.22
2019-06-07T09:33:08.945Z,7.08
2019-06-07T09:35:39.863Z,7.95
2019-06-07T09:38:23.206Z,6.15
2019-06-07T09:40:40.676Z,8.68
2019-06-07T09:45:41.358Z,7.60
2019-06-07T09:48:16.220Z,7.20
2019-06-07T09:50:42.068Z,11.78
2019-06-07T09:53:21.810Z,6.28
2019-06-07T09:55:42.817Z,8.28
2019-06-07T10:00:44.141Z,8.43
2019-06-07T10:03:21.152Z,10.38
2019-06-07T10:05:44.893Z,9.00
2019-06-07T10:09:14.915Z,7.80
2019-06-07T10:10:45.893Z,4.78
2019-06-07T10:13:15.331Z,7.05
2019-06-07T10:15:44.779Z,6.75
2019-06-07T10:18:14.496Z,4.80
2019-06-07T10:20:43.939Z,6.70
2019-06-07T10:23:14.256Z,6.20
2019-06-07T10:25:43.893Z,7.25
2019-06-07T10:28:13.972Z,8.20
2019-06-07T10:30:43.878Z,5.47
2019-06-07T10:33:13.626Z,6.75
2019-06-07T10:35:43.069Z,5.97
2019-06-07T10:38:12.803Z,7.95
2019-06-07T10:40:42.334Z,9.78
2019-06-07T10:43:14.451Z,5.40
2019-06-07T10:45:43.788Z,6.50
2019-06-07T10:48:13.493Z,8.53
2019-06-07T10:50:42.857Z,4.60
2019-06-07T10:53:12.687Z,9.70
2019-06-07T10:55:42.338Z,6.83
2019-06-07T10:58:13.186Z,4.45
2019-06-07T11:00:43.324Z,8.08
2019-06-07T11:03:14.257Z,3.75
2019-06-07T11:05:44.021Z,4.17
2019-06-07T11:08:14.907Z,3.27
2019-06-07T11:10:44.853Z,8.83
2019-06-07T11:13:14.535Z,4.28
2019-06-07T11:15:44.049Z,4.40
2019-06-07T11:18:14.405Z,4.58
2019-06-07T11:20:44.207Z,6.03
2019-06-07T11:23:14.309Z,6.00
2019-06-07T11:25:44.164Z,4.28
2019-06-07T11:28:14.639Z,6.00
2019-06-07T11:30:44.365Z,6.42
2019-06-07T11:33:16.296Z,8.15
2019-06-07T11:35:45.098Z,6.75
2019-06-07T11:38:14.942Z,3.87
2019-06-07T11:40:44.366Z,6.05
2019-06-07T11:43:14.975Z,4.67
2019-06-07T11:45:44.710Z,4.22
2019-06-07T11:48:15.527Z,5.25
2019-06-07T11:50:45.317Z,4.78
2019-06-07T11:53:14.817Z,2.37
2019-06-07T11:55:44.894Z,5.28
2019-06-07T11:58:18.561Z,5.08
2019-06-07T12:00:46.159Z,9.33
2019-06-07T12:03:15.937Z,3.35
2019-06-07T12:05:45.878Z,5.85
2019-06-07T12:08:16.067Z,3.37
2019-06-07T12:10:46.072Z,4.17
2019-06-07T12:13:17.058Z,8.00
2019-06-07T12:15:49.056Z,3.05
2019-06-07T12:18:19.508Z,7.12
2019-06-07T12:20:49.274Z,2.67
2019-06-07T12:23:20.039Z,3.37
2019-06-07T12:25:49.622Z,4.95
2019-06-07T12:28:19.164Z,7.22
2019-06-07T12:30:48.546Z,6.42
2019-06-07T12:33:19.712Z,5.05
2019-06-07T12:35:49.582Z,6.97
2019-06-07T12:38:20.930Z,4.10
2019-06-07T12:40:57.664Z,6.90
2019-06-07T12:43:23.066Z,3.50
2019-06-07T12:45:52.745Z,6.33
2019-06-07T12:48:25.583Z,3.50
2019-06-07T12:50:53.784Z,4.22
2019-06-07T12:53:26.692Z,5.95
2019-06-07T12:55:54.555Z,5.65
2019-06-07T12:58:31.035Z,7.03
2019-06-07T13:00:55.189Z,5.05
2019-06-07T13:03:24.713Z,3.62
2019-06-07T13:05:54.397Z,6.55
2019-06-07T13:08:23.994Z,6.37
2019-06-07T13:10:53.491Z,5.55
2019-06-07T13:13:24.448Z,3.47
2019-06-07T13:15:54.267Z,6.08
2019-06-07T13:18:25.212Z,7.20
2019-06-07T13:20:55.728Z,5.12
2019-06-07T13:23:25.455Z,7.12
2019-06-07T13:25:55.089Z,4.60
2019-06-07T13:28:25.051Z,5.17
2019-06-07T13:30:54.527Z,9.90
2019-06-07T13:33:25.783Z,4.60
2019-06-07T13:35:55.404Z,3.45
2019-06-07T13:38:25.788Z,3.50
2019-06-07T13:40:56.523Z,4.05
2019-06-07T13:43:26.106Z,4.50
2019-06-07T13:45:55.641Z,7.42
2019-06-07T13:48:25.417Z,2.80
2019-06-07T13:50:54.818Z,2.58
2019-06-07T13:53:25.072Z,4.20
2019-06-07T13:55:54.883Z,4.80
2019-06-07T13:58:26.417Z,2.20
2019-06-07T14:00:56.389Z,7.90
2019-06-07T14:03:29.268Z,2.62
2019-06-07T14:05:57.280Z,1.60
2019-06-07T14:08:27.292Z,3.27
2019-06-07T14:10:57.045Z,1.60
2019-06-07T14:13:27.982Z,4.12
2019-06-07T14:15:57.610Z,2.27
2019-06-07T14:18:28.634Z,2.58
2019-06-07T14:20:58.968Z,3.72
2019-06-07T14:23:47.433Z,2.92
2019-06-07T14:26:00.147Z,2.45
2019-06-07T14:28:32.158Z,1.77
2019-06-07T14:31:00.836Z,2.02
2019-06-07T14:33:32.051Z,3.58
2019-06-07T14:36:01.985Z,4.28
2019-06-07T14:38:36.800Z,2.40
2019-06-07T14:41:03.234Z,4.22
2019-06-07T14:43:34.099Z,4.08
2019-06-07T14:46:03.869Z,3.62
2019-06-07T14:48:34.501Z,6.37
2019-06-07T14:51:04.391Z,2.22
2019-06-07T14:53:35.103Z,2.60
2019-06-07T14:56:05.031Z,1.27
2019-06-07T14:58:39.978Z,2.00
2019-06-07T15:01:05.914Z,2.00
2019-06-07T15:03:35.393Z,1.55
2019-06-07T15:06:04.902Z,0.85
2019-06-07T15:08:34.901Z,2.92
2019-06-07T15:11:05.028Z,1.42
2019-06-07T15:13:35.728Z,0.82
2019-06-07T15:16:05.810Z,1.52
2019-06-07T15:18:36.172Z,2.50
2019-06-07T15:21:05.778Z,1.60
2019-06-07T15:23:35.362Z,2.65
2019-06-07T15:26:05.094Z,2.45
2019-06-07T15:28:36.717Z,1.30
2019-06-07T15:31:05.898Z,2.12
2019-06-07T15:33:36.531Z,2.27
2019-06-07T15:36:06.032Z,2.37
2019-06-07T15:38:37.061Z,1.87
2019-06-07T15:41:06.510Z,1.77
2019-06-07T15:43:35.728Z,1.70
2019-06-07T15:46:04.916Z,2.92
2019-06-07T15:48:35.966Z,2.20
2019-06-07T15:51:05.526Z,1.90
2019-06-07T15:53:39.800Z,2.85
2019-06-07T15:56:06.410Z,1.27
2019-06-07T15:58:37.092Z,1.47
2019-06-07T16:01:06.908Z,2.67
2019-06-07T16:03:37.797Z,1.45
2019-06-07T16:06:07.724Z,2.83
2019-06-07T16:08:38.636Z,4.45
2019-06-07T16:11:08.259Z,2.45
2019-06-07T16:13:38.776Z,2.02
2019-06-07T16:16:08.552Z,2.52
2019-06-07T16:18:39.673Z,2.45
2019-06-07T16:21:09.487Z,1.98
2019-06-07T16:23:39.826Z,3.67
2019-06-07T16:26:09.547Z,1.02
2019-06-07T16:28:39.003Z,1.95
2019-06-07T16:31:08.756Z,2.05
2019-06-07T16:33:38.879Z,1.77
2019-06-07T16:36:08.787Z,1.60
2019-06-07T16:38:38.266Z,1.72
2019-06-07T16:41:07.638Z,2.65
2019-06-07T16:43:38.464Z,2.70
2019-06-07T16:46:08.293Z,3.90
2019-06-07T16:48:38.746Z,3.92
2019-06-07T16:51:08.688Z,1.30
2019-06-07T16:53:38.289Z,1.45
2019-06-07T16:56:07.865Z,3.02
2019-06-07T16:58:37.824Z,4.22
2019-06-07T17:01:07.548Z,1.85
2019-06-07T17:03:37.318Z,4.80
2019-06-07T17:06:07.093Z,3.95
2019-06-07T17:08:37.862Z,2.47
2019-06-07T17:11:07.531Z,2.20
2019-06-07T17:13:38.148Z,5.28
2019-06-07T17:16:07.968Z,5.62
2019-06-07T17:18:38.890Z,2.33
2019-06-07T17:21:08.539Z,3.52
2019-06-07T17:23:39.114Z,2.77
2019-06-07T17:26:10.501Z,3.05
2019-06-07T17:28:40.026Z,2.42
2019-06-07T17:31:09.520Z,2.02
2019-06-07T17:33:39.810Z,6.20
2019-06-07T17:36:09.771Z,4.10
2019-06-07T17:38:40.391Z,2.90
2019-06-07T17:41:10.152Z,3.87
2019-06-07T17:43:49.563Z,3.77
2019-06-07T17:46:11.013Z,2.20
2019-06-07T17:48:41.435Z,3.60
2019-06-07T17:51:11.063Z,3.12
2019-06-07T17:53:41.870Z,1.55
2019-06-07T17:56:11.710Z,3.08
2019-06-07T17:58:42.202Z,2.08
2019-06-07T18:01:12.255Z,2.50
2019-06-07T18:03:42.976Z,13.65
2019-06-07T18:06:15.901Z,3.30
2019-06-07T18:08:45.541Z,3.60
2019-06-07T18:11:15.044Z,6.75
2019-06-07T18:13:46.034Z,4.50
2019-06-07T18:16:16.173Z,2.27
2019-06-07T18:18:46.558Z,2.77
2019-06-07T18:21:16.202Z,3.98
2019-06-07T18:23:46.223Z,5.33
2019-06-07T18:26:15.934Z,1.52
2019-06-07T18:28:46.588Z,2.58
2019-06-07T18:31:16.217Z,1.45
2019-06-07T18:33:46.802Z,1.82
2019-06-07T18:36:16.398Z,9.55
2019-06-07T18:38:46.882Z,2.75
2019-06-07T18:41:16.474Z,2.77
2019-06-07T18:43:47.059Z,2.22
2019-06-07T18:46:16.633Z,3.75
2019-06-07T18:48:46.403Z,4.00
2019-06-07T18:51:16.444Z,4.87
2019-06-07T18:53:46.067Z,3.52
2019-06-07T18:56:16.224Z,5.25
2019-06-07T18:58:47.013Z,3.42
2019-06-07T19:01:16.784Z,6.10
2019-06-07T19:03:47.166Z,3.00
2019-06-07T19:06:17.591Z,3.10
2019-06-07T19:08:48.401Z,2.12
2019-06-07T19:11:18.350Z,5.08
2019-06-07T19:13:48.845Z,3.50
2019-06-07T19:16:18.417Z,4.08
2019-06-07T19:18:47.848Z,5.97
2019-06-07T19:21:17.328Z,4.95
2019-06-07T19:23:47.072Z,5.17
2019-06-07T19:26:16.520Z,3.15
2019-06-07T19:28:45.977Z,6.58
2019-06-07T19:31:15.420Z,3.40
2019-06-07T19:33:48.956Z,3.65
2019-06-07T19:36:16.227Z,2.67
2019-06-07T19:38:45.658Z,6.28
2019-06-07T19:41:19.609Z,5.15
2019-06-07T19:43:46.940Z,5.03
2019-06-07T19:46:16.412Z,4.37
2019-06-07T19:48:46.209Z,8.65
2019-06-07T19:51:15.843Z,9.28
2019-06-07T19:53:45.654Z,2.30
2019-06-07T19:56:15.030Z,5.60
2019-06-07T19:58:44.464Z,1.32
2019-06-07T20:01:13.860Z,4.37
2019-06-07T20:03:43.289Z,3.83
2019-06-07T20:06:12.918Z,3.75
2019-06-07T20:08:42.384Z,3.42
2019-06-07T20:11:11.767Z,8.50
2019-06-07T20:13:41.151Z,4.28
2019-06-07T20:16:10.610Z,2.33
2019-06-07T20:18:40.195Z,5.17
2019-06-07T20:21:10.012Z,2.62
2019-06-07T20:23:39.464Z,4.62
2019-06-07T20:26:08.941Z,4.08
2019-06-07T20:28:38.359Z,4.58
2019-06-07T20:31:08.303Z,3.08
2019-06-07T20:33:38.148Z,4.37
2019-06-07T20:36:08.983Z,5.70
2019-06-07T20:38:38.912Z,5.22
2019-06-07T20:41:08.302Z,4.67
2019-06-07T20:43:38.351Z,4.58
2019-06-07T20:46:08.257Z,4.22
2019-06-07T20:48:38.114Z,5.58
2019-06-07T20:51:08.669Z,6.25
2019-06-07T20:53:38.390Z,4.83
2019-06-07T20:56:09.208Z,3.25
2019-06-07T20:58:38.871Z,6.05
2019-06-07T21:01:09.046Z,2.85
2019-06-07T21:03:38.446Z,3.47
2019-06-07T21:06:07.836Z,3.77
2019-06-07T21:08:37.200Z,4.47
2019-06-07T21:11:07.689Z,2.37
2019-06-07T21:13:37.383Z,5.78
2019-06-07T21:16:08.178Z,5.75
2019-06-07T21:18:37.930Z,2.50
2019-06-07T21:21:08.460Z,3.62
2019-06-07T21:23:38.190Z,2.58
2019-06-07T21:26:09.014Z,6.87
2019-06-07T21:28:39.892Z,4.62
2019-06-07T21:31:10.482Z,6.05
2019-06-07T21:33:40.270Z,3.67
2019-06-07T21:36:09.876Z,4.72
2019-06-07T21:38:39.520Z,6.12
2019-06-07T21:41:10.545Z,8.43
2019-06-07T21:43:40.182Z,3.25
2019-06-07T21:46:17.305Z,3.17
2019-06-07T21:48:40.990Z,5.30
2019-06-07T21:51:10.742Z,3.45
2019-06-07T21:53:41.186Z,7.20
2019-06-07T21:56:11.288Z,6.78
2019-06-07T21:58:41.031Z,8.70
2019-06-07T22:01:14.348Z,4.75
2019-06-07T22:03:44.327Z,5.70
2019-06-07T22:06:14.216Z,5.10
2019-06-07T22:08:43.752Z,7.33
2019-06-07T22:11:14.179Z,4.12
2019-06-07T22:13:43.795Z,2.98
2019-06-07T22:16:26.796Z,6.20
2019-06-07T22:18:44.492Z,5.15
2019-06-07T22:21:14.790Z,3.90
2019-06-07T22:23:44.621Z,5.55
2019-06-07T22:26:15.493Z,6.03
2019-06-07T22:28:45.060Z,7.28
2019-06-07T22:31:14.947Z,4.45
2019-06-07T22:33:44.560Z,4.28
2019-06-07T22:36:15.903Z,4.05
2019-06-07T22:38:45.350Z,8.28
2019-06-07T22:41:15.849Z,5.55
2019-06-07T22:43:45.543Z,4.08
2019-06-07T22:46:15.185Z,5.33
2019-06-07T22:48:44.676Z,8.05
2019-06-07T22:51:14.637Z,7.72
2019-06-07T22:53:44.635Z,6.08
2019-06-07T22:56:18.139Z,9.18
2019-06-07T22:58:47.716Z,6.83
2019-06-07T23:01:17.332Z,10.88
2019-06-07T23:03:46.970Z,16.60
2019-06-07T23:06:16.803Z,13.22
2019-06-07T23:08:46.670Z,6.60
2019-06-07T23:11:17.342Z,5.62
2019-06-07T23:13:47.015Z,4.90
2019-06-07T23:16:17.732Z,8.30
2019-06-07T23:18:47.291Z,8.73
2019-06-07T23:21:17.897Z,6.58
2019-06-07T23:23:47.617Z,6.45
2019-06-07T23:26:18.321Z,7.60
2019-06-07T23:28:47.891Z,6.05
2019-06-07T23:31:18.509Z,3.92
2019-06-07T23:33:48.151Z,10.18
2019-06-07T23:36:19.221Z,6.50
2019-06-07T23:38:48.744Z,6.58
2019-06-07T23:41:20.283Z,7.00
2019-06-07T23:43:49.424Z,5.67
2019-06-07T23:46:19.478Z,6.58
2019-06-07T23:48:48.974Z,5.75
2019-06-07T23:51:19.502Z,7.58
2019-06-07T23:53:49.459Z,3.45
2019-06-07T23:56:20.427Z,6.20
2019-06-07T23:58:50.388Z,7.87
